weather.gov     
National Weather Service

Terminal Aerodrome Forecast
NWS Homepage
This page is being discontinued on March 12, 2014.
The same data is available at this site. Please update your bookmarks.
Thank you, and we apologize for the inconvenience.
Please send an email to SR-SRH.Webmaster@noaa.gov with any concerns.


Current Version
Previous Version:    01  02  03  04  05  06  07  08  09  10  11  12  13  14  15  16  17  18  19  20  21  22  23  24  25  26  27  28  29  30  
   31  32  33  34  35  36  37  38  39  40  41  42  43  44  45  46  47  
[Printable]
865
FTUS41 KBUF 310300 AAA
TAFART
TAF AMD
KART 310319Z 3103/3124 17009KT P6SM VCSH BKN090
      TEMPO 3103/3105 5SM -SHRA BKN050
     FM310500 19011KT P6SM OVC050
     FM310800 19010KT 6SM -SHRA VCTS OVC050CB
     FM311400 21011KT 5SM SHRA VCTS OVC035CB
     FM311800 21012KT P6SM VCSH BKN030
     FM312200 22009KT P6SM BKN250=


U.S. Dept. of Commerce
NOAA National Weather Service
1325 East West Highway
Silver Spring, MD 20910
E-mail: w-nws.webmaster@noaa.gov
Page last modified: May 16, 2007
NATIONAL WEATHER SERVICE: for Safety, for Work, for Fun - FOR LIFE